Time;durP1;ratioP1;P1;durP2;ratioP2;P2;SDS_P1;SDS_P2;PMS_P1;PMS_P2;Temp;Humidity;BMP_temperature;BMP_pressure;BME280_temperature;BME280_humidity;BME280_pressure;Samples;Min_cycle;Max_cycle;Signal;HPM_P1;HPM_P2
2021/10/05 00:02:07;;;;;;;0.60;0.60;;;;;;;10.94;100.00;100396.31;5091501;28;20607;-71
2021/10/05 00:04:32;;;;;;;0.87;0.63;;;;;;;10.92;100.00;100419.59;5091069;28;20177;-72
2021/10/05 00:06:58;;;;;;;1.30;0.73;;;;;;;10.86;100.00;100420.88;5090691;28;20562;-72
2021/10/05 00:09:23;;;;;;;0.50;0.50;;;;;;;10.79;100.00;100421.31;5091651;28;20174;-72
2021/10/05 00:11:49;;;;;;;0.73;0.50;;;;;;;10.74;100.00;100418.72;5091363;28;20302;-72
2021/10/05 00:14:14;;;;;;;0.50;0.50;;;;;;;10.72;100.00;100410.03;5091310;28;20178;-72
2021/10/05 00:16:39;;;;;;;0.60;0.50;;;;;;;10.68;100.00;100346.19;5091343;28;20177;-72
2021/10/05 00:19:05;;;;;;;0.77;0.57;;;;;;;10.71;100.00;100398.31;5091275;28;20264;-72
2021/10/05 00:21:30;;;;;;;0.80;0.80;;;;;;;10.77;100.00;100400.88;5091166;28;20699;-72
2021/10/05 00:23:55;;;;;;;0.93;0.70;;;;;;;10.87;100.00;100403.34;5090750;28;20200;-72
2021/10/05 00:26:21;;;;;;;0.50;0.50;;;;;;;10.92;100.00;100398.56;5091574;28;20220;-72
2021/10/05 00:28:46;;;;;;;0.60;0.60;;;;;;;10.99;100.00;100392.63;5091056;28;20603;-72
2021/10/05 00:31:11;;;;;;;0.53;0.43;;;;;;;11.09;100.00;100384.13;5090902;28;20668;-72
2021/10/05 00:33:37;;;;;;;0.80;0.80;;;;;;;11.17;100.00;100372.44;5090592;28;20178;-71
2021/10/05 00:36:02;;;;;;;0.70;0.67;;;;;;;11.20;100.00;100371.00;5090842;28;20205;-72
2021/10/05 00:38:28;;;;;;;0.77;0.77;;;;;;;11.23;100.00;100379.38;5091164;28;20177;-72
2021/10/05 00:40:53;;;;;;;1.20;0.70;;;;;;;11.25;100.00;100377.13;5090954;28;20178;-72
2021/10/05 00:43:18;;;;;;;0.77;0.77;;;;;;;11.27;100.00;100366.66;5090930;28;20440;-72
2021/10/05 00:45:44;;;;;;;0.70;0.70;;;;;;;11.30;100.00;100366.03;5090717;28;20181;-72
2021/10/05 00:48:09;;;;;;;0.60;0.60;;;;;;;11.32;100.00;100365.72;5090844;28;20166;-72
2021/10/05 00:50:34;;;;;;;0.47;0.47;;;;;;;11.33;100.00;100359.13;5091135;28;20201;-72
2021/10/05 00:53:00;;;;;;;5.10;0.70;;;;;;;11.28;100.00;100368.31;5091014;28;20174;-72
2021/10/05 00:55:25;;;;;;;0.70;0.60;;;;;;;11.23;100.00;100349.28;5090386;28;20613;-72
2021/10/05 00:57:51;;;;;;;1.23;0.50;;;;;;;11.23;100.00;100349.28;5090645;28;20178;-72
2021/10/05 01:00:18;;;;;;;0.90;0.50;;;;;;;11.25;100.00;100348.97;5090627;28;20272;-72
2021/10/05 01:02:45;;;;;;;0.73;0.73;;;;;;;11.23;100.00;100337.53;5090856;28;20232;-72
2021/10/05 01:05:13;;;;;;;0.63;0.57;;;;;;;11.17;100.00;100350.56;5090010;28;20187;-72
2021/10/05 01:07:39;;;;;;;0.73;0.70;;;;;;;11.15;100.00;100347.34;5090634;28;20285;-72
2021/10/05 01:10:05;;;;;;;0.80;0.70;;;;;;;11.09;100.00;100324.00;5090590;28;20669;-72
2021/10/05 01:12:30;;;;;;;0.70;0.70;;;;;;;11.11;100.00;100334.59;5090490;28;20206;-72
2021/10/05 01:14:56;;;;;;;0.93;0.70;;;;;;;11.09;100.00;100329.47;5090269;28;20188;-72
2021/10/05 01:17:21;;;;;;;0.70;0.70;;;;;;;11.22;100.00;100333.19;5090612;28;20174;-72
2021/10/05 01:19:47;;;;;;;1.10;1.00;;;;;;;11.30;100.00;100329.69;5094317;28;20181;-72
2021/10/05 01:22:13;;;;;;;1.10;1.00;;;;;;;11.36;100.00;100333.88;5094787;28;20548;-72
2021/10/05 01:24:38;;;;;;;4.13;3.73;;;;;;;11.44;100.00;100335.81;5094177;28;20185;-72
2021/10/05 01:27:04;;;;;;;2.50;2.23;;;;;;;11.42;100.00;100323.56;5094771;28;20182;-71
2021/10/05 01:29:31;;;;;;;1.63;1.23;;;;;;;11.49;100.00;100321.19;5094459;28;20181;-72
2021/10/05 01:31:59;;;;;;;2.83;1.70;;;;;;;11.48;100.00;100325.84;5094383;28;20201;-72
2021/10/05 01:34:25;;;;;;;1.47;1.13;;;;;;;11.43;100.00;100315.06;5094402;28;20538;-72
2021/10/05 01:36:52;;;;;;;0.87;0.87;;;;;;;11.29;100.00;100304.28;5094464;28;20226;-72
2021/10/05 01:39:35;;;;;;;0.80;0.80;;;;;;;11.30;100.00;100305.06;5094370;28;20239;-72
2021/10/05 01:42:04;;;;;;;2.17;1.00;;;;;;;11.00;100.00;100304.84;5094347;28;20178;-72
2021/10/05 01:44:29;;;;;;;1.20;0.83;;;;;;;11.11;100.00;100296.34;5093962;28;20627;-72
2021/10/05 01:46:55;;;;;;;1.00;0.80;;;;;;;11.22;100.00;100292.97;5094257;28;20189;-72
2021/10/05 01:49:21;;;;;;;0.90;0.90;;;;;;;11.30;100.00;100292.19;5094131;28;20178;-72
2021/10/05 01:51:47;;;;;;;0.90;0.90;;;;;;;11.11;100.00;100291.66;5094245;28;20661;-72
2021/10/05 01:54:13;;;;;;;0.80;0.80;;;;;;;11.28;100.00;100288.16;5093935;28;20543;-72
2021/10/05 01:56:39;;;;;;;0.80;0.80;;;;;;;11.33;100.00;100283.34;5094054;28;20174;-72
2021/10/05 01:59:04;;;;;;;0.83;0.83;;;;;;;11.29;100.00;100282.38;5094131;28;20192;-72
2021/10/05 02:01:30;;;;;;;0.93;0.93;;;;;;;11.49;100.00;100282.88;5093982;28;20211;-72
2021/10/05 02:03:55;;;;;;;0.90;0.90;;;;;;;11.43;100.00;100278.66;5093662;28;20185;-72
2021/10/05 02:06:22;;;;;;;0.83;0.83;;;;;;;11.46;100.00;100278.84;5093792;28;20238;-71
2021/10/05 02:08:48;;;;;;;1.00;0.63;;;;;;;11.65;100.00;100275.78;5093826;28;20189;-72
2021/10/05 02:11:13;;;;;;;0.67;0.60;;;;;;;11.61;100.00;100272.09;5093748;28;20232;-72
2021/10/05 02:13:40;;;;;;;1.33;0.90;;;;;;;11.69;100.00;100271.28;5093710;28;20323;-72
2021/10/05 02:16:06;;;;;;;0.93;0.93;;;;;;;11.67;100.00;100259.84;5093717;28;20477;-72
2021/10/05 02:18:32;;;;;;;0.70;0.70;;;;;;;11.71;100.00;100260.81;5093899;28;20178;-72
2021/10/05 02:20:57;;;;;;;0.50;0.50;;;;;;;11.66;100.00;100250.03;5093721;28;20173;-72
2021/10/05 02:23:23;;;;;;;0.90;0.80;;;;;;;11.76;100.00;100246.16;5092457;28;20665;-72
2021/10/05 02:25:48;;;;;;;0.50;0.50;;;;;;;11.81;100.00;100233.13;5093428;28;20170;-72
2021/10/05 02:28:13;;;;;;;0.93;0.93;;;;;;;11.77;100.00;100240.38;5092215;28;20181;-72
2021/10/05 02:30:39;;;;;;;0.70;0.70;;;;;;;11.87;100.00;100242.00;5092657;28;20236;-72
2021/10/05 02:33:04;;;;;;;0.60;0.60;;;;;;;11.93;100.00;100237.16;5092963;28;20174;-72
2021/10/05 02:35:30;;;;;;;0.60;0.60;;;;;;;11.94;100.00;100236.03;5091385;28;20264;-72
2021/10/05 02:37:55;;;;;;;0.60;0.60;;;;;;;11.96;100.00;100240.03;5094205;28;20454;-72
2021/10/05 02:40:20;;;;;;;1.13;0.70;;;;;;;11.93;100.00;100234.41;5100347;28;20201;-72
2021/10/05 02:42:46;;;;;;;1.53;0.70;;;;;;;11.90;100.00;100231.19;5093604;28;20174;-72
2021/10/05 02:45:12;;;;;;;0.70;0.67;;;;;;;11.89;100.00;100231.53;5092863;28;20177;-72
2021/10/05 02:47:38;;;;;;;0.93;0.50;;;;;;;11.77;100.00;100229.41;5093303;28;20166;-72
2021/10/05 02:50:04;;;;;;;0.93;0.90;;;;;;;11.79;100.00;100221.72;5093309;28;20517;-72
2021/10/05 02:52:29;;;;;;;0.50;0.50;;;;;;;11.73;100.00;100222.19;5092699;28;20205;-73
2021/10/05 02:54:54;;;;;;;0.87;0.70;;;;;;;11.67;100.00;100218.81;5093245;28;20186;-72
2021/10/05 02:57:20;;;;;;;0.60;0.60;;;;;;;11.75;100.00;100217.19;5093093;28;20182;-72
2021/10/05 02:59:47;;;;;;;1.03;0.90;;;;;;;11.72;100.00;100221.38;5092794;28;20170;-73
2021/10/05 03:02:13;;;;;;;0.60;0.60;;;;;;;11.69;100.00;100205.59;5092751;28;20230;-72
2021/10/05 03:04:39;;;;;;;0.70;0.70;;;;;;;11.73;100.00;100214.78;5092602;28;20308;-72
2021/10/05 03:07:05;;;;;;;0.80;0.60;;;;;;;11.77;100.00;100207.53;5091497;28;20648;-72
2021/10/05 03:09:31;;;;;;;2.83;0.90;;;;;;;11.78;100.00;100205.59;5092852;28;20189;-72
2021/10/05 03:11:57;;;;;;;0.60;0.50;;;;;;;11.72;100.00;100199.50;5092431;28;20814;-72
2021/10/05 03:14:22;;;;;;;0.90;0.90;;;;;;;11.76;100.00;100200.44;5092203;28;20178;-72
2021/10/05 03:16:48;;;;;;;0.80;0.80;;;;;;;11.71;100.00;100188.84;5092560;28;20532;-73
2021/10/05 03:19:13;;;;;;;0.63;0.63;;;;;;;11.80;100.00;100174.06;5092436;28;20170;-72
2021/10/05 03:21:40;;;;;;;1.00;0.90;;;;;;;11.83;100.00;100164.38;5092317;28;20531;-72
2021/10/05 03:24:06;;;;;;;0.90;0.90;;;;;;;11.85;100.00;100179.34;5092495;28;20556;-72
2021/10/05 03:26:31;;;;;;;1.37;1.07;;;;;;;11.76;100.00;100183.22;5092730;28;20184;-72
2021/10/05 03:28:57;;;;;;;0.60;0.60;;;;;;;11.84;100.00;100176.94;5092087;28;20556;-72
2021/10/05 03:31:23;;;;;;;0.70;0.70;;;;;;;11.80;100.00;100176.00;5092596;28;20205;-72
2021/10/05 03:33:48;;;;;;;0.70;0.70;;;;;;;11.82;100.00;100179.19;5091800;28;20588;-72
2021/10/05 03:36:15;;;;;;;0.80;0.80;;;;;;;11.72;100.00;100168.59;5091908;28;20212;-72
2021/10/05 03:38:41;;;;;;;0.97;0.70;;;;;;;11.72;100.00;100165.84;5092068;28;20236;-72
2021/10/05 03:41:07;;;;;;;0.60;0.60;;;;;;;11.72;100.00;100169.41;5089850;28;20543;-72
2021/10/05 03:43:33;;;;;;;0.80;0.80;;;;;;;11.75;100.00;100170.66;5091770;28;20210;-73
2021/10/05 03:45:59;;;;;;;0.90;0.87;;;;;;;11.77;100.00;100165.66;5091729;28;20231;-72
2021/10/05 03:48:25;;;;;;;1.23;0.93;;;;;;;11.85;100.00;100164.84;5091842;28;20563;-72
2021/10/05 03:50:51;;;;;;;0.90;0.90;;;;;;;11.83;100.00;100158.91;5091631;28;20193;-72
2021/10/05 03:53:18;;;;;;;1.03;0.80;;;;;;;11.76;100.00;100167.59;5091699;28;20626;-72
2021/10/05 03:55:45;;;;;;;0.77;0.70;;;;;;;11.77;100.00;100147.31;5091641;28;20173;-72
2021/10/05 03:58:10;;;;;;;1.07;0.80;;;;;;;11.86;100.00;100158.25;5091644;28;20536;-72
2021/10/05 04:00:35;;;;;;;0.97;0.83;;;;;;;11.88;100.00;100145.88;5091655;28;20261;-72
2021/10/05 04:03:01;;;;;;;3.33;0.90;;;;;;;11.83;100.00;100151.50;5091873;28;20254;-72
2021/10/05 04:05:26;;;;;;;1.60;0.77;;;;;;;11.85;100.00;100151.16;5091039;28;20277;-72
2021/10/05 04:07:51;;;;;;;3.67;0.87;;;;;;;11.87;100.00;100149.72;5091649;28;20245;-72
2021/10/05 04:10:17;;;;;;;0.90;0.73;;;;;;;11.85;100.00;100135.53;5091440;28;20521;-72
2021/10/05 04:12:42;;;;;;;1.20;1.10;;;;;;;11.72;100.00;100125.59;5091124;28;20249;-72
2021/10/05 04:15:08;;;;;;;2.13;1.40;;;;;;;11.79;100.00;100127.84;5091110;28;20188;-72
2021/10/05 04:17:33;;;;;;;0.93;0.77;;;;;;;11.77;100.00;100121.88;5091105;28;20256;-73
2021/10/05 04:19:58;;;;;;;1.23;0.97;;;;;;;11.73;100.00;100123.66;5091288;28;20178;-72
2021/10/05 04:22:24;;;;;;;1.20;1.10;;;;;;;11.79;100.00;100131.38;5091190;28;20630;-72
2021/10/05 04:24:50;;;;;;;1.53;1.10;;;;;;;11.66;100.00;100120.63;5090886;28;20222;-72
2021/10/05 04:27:15;;;;;;;2.20;0.80;;;;;;;11.63;100.00;100111.94;5091026;28;20209;-72
2021/10/05 04:29:42;;;;;;;1.33;0.70;;;;;;;11.76;100.00;100118.34;5090989;28;20224;-72
2021/10/05 04:32:08;;;;;;;0.60;0.60;;;;;;;11.79;100.00;100109.50;5090938;28;20202;-72
2021/10/05 04:34:34;;;;;;;0.60;0.60;;;;;;;11.73;100.00;100102.56;5090587;28;20174;-72
2021/10/05 04:36:59;;;;;;;0.50;0.50;;;;;;;11.58;100.00;100092.97;5090837;28;20178;-72
2021/10/05 04:39:25;;;;;;;0.50;0.50;;;;;;;11.60;100.00;100089.91;5090972;28;20240;-72
2021/10/05 04:41:50;;;;;;;0.83;0.57;;;;;;;11.68;100.00;100086.31;5090718;28;20534;-72
2021/10/05 04:44:15;;;;;;;0.50;0.50;;;;;;;11.71;100.00;100080.19;5090774;28;20605;-72
2021/10/05 04:46:41;;;;;;;1.83;0.50;;;;;;;11.74;100.00;100078.75;5090813;28;20239;-72
2021/10/05 04:49:06;;;;;;;0.67;0.60;;;;;;;11.68;100.00;100064.41;5090767;28;20184;-72
2021/10/05 04:51:33;;;;;;;0.60;0.60;;;;;;;11.71;100.00;100068.44;5090534;28;20201;-73
2021/10/05 04:53:59;;;;;;;0.70;0.70;;;;;;;11.68;100.00;100058.94;5090327;28;20188;-72
2021/10/05 04:56:24;;;;;;;0.50;0.50;;;;;;;11.77;100.00;100061.66;5090555;28;20542;-72
2021/10/05 04:58:49;;;;;;;0.47;0.40;;;;;;;11.70;100.00;100059.41;5090618;28;20223;-72
2021/10/05 05:01:15;;;;;;;0.50;0.50;;;;;;;11.67;100.00;100059.28;5090697;28;20189;-72
2021/10/05 05:03:40;;;;;;;0.80;0.50;;;;;;;11.76;100.00;100065.53;5090596;28;20529;-72
2021/10/05 05:06:05;;;;;;;0.70;0.50;;;;;;;11.75;100.00;100066.66;5090406;28;20197;-72
2021/10/05 05:08:31;;;;;;;0.60;0.60;;;;;;;11.67;100.00;100060.09;5090621;28;20174;-72
2021/10/05 05:10:56;;;;;;;0.60;0.60;;;;;;;11.61;100.00;100053.19;5090649;28;20723;-72
2021/10/05 05:13:21;;;;;;;0.60;0.60;;;;;;;11.59;100.00;100050.78;5090542;28;20180;-72
2021/10/05 05:15:47;;;;;;;1.07;0.80;;;;;;;11.54;100.00;100036.47;5090169;28;20178;-72
2021/10/05 05:18:12;;;;;;;0.57;0.57;;;;;;;11.48;100.00;100024.13;5090212;28;20522;-72
2021/10/05 05:20:37;;;;;;;0.50;0.50;;;;;;;11.43;100.00;100041.53;5090340;28;20183;-72
2021/10/05 05:23:03;;;;;;;0.60;0.60;;;;;;;11.40;100.00;100023.00;5090028;28;20547;-72
2021/10/05 05:25:28;;;;;;;0.83;0.53;;;;;;;11.43;100.00;100029.75;5089943;28;20578;-72
2021/10/05 05:27:53;;;;;;;1.10;0.60;;;;;;;11.37;100.00;100031.88;5090230;28;20725;-72
2021/10/05 05:30:19;;;;;;;1.20;0.67;;;;;;;11.38;100.00;100030.72;5090389;28;20208;-72
2021/10/05 05:32:44;;;;;;;0.80;0.50;;;;;;;11.27;100.00;100024.00;5090160;28;20263;-73
2021/10/05 05:35:09;;;;;;;3.23;0.60;;;;;;;11.31;100.00;100031.25;5090051;28;20174;-72
2021/10/05 05:37:35;;;;;;;1.03;1.00;;;;;;;11.36;100.00;100032.19;5090338;28;20178;-72
2021/10/05 05:40:00;;;;;;;0.90;0.80;;;;;;;11.41;100.00;100007.38;5090124;28;20256;-72
2021/10/05 05:42:26;;;;;;;0.93;0.93;;;;;;;11.43;100.00;100024.28;5090439;28;20182;-72
2021/10/05 05:44:52;;;;;;;0.40;0.40;;;;;;;11.48;100.00;100024.13;5090096;28;20174;-72
2021/10/05 05:47:18;;;;;;;0.63;0.60;;;;;;;11.47;100.00;100026.03;5088959;28;20229;-72
2021/10/05 05:49:43;;;;;;;0.70;0.70;;;;;;;11.40;100.00;100025.75;5090041;28;20166;-72
2021/10/05 05:52:08;;;;;;;0.93;0.90;;;;;;;11.29;100.00;100021.78;5089946;28;20838;-72
2021/10/05 05:54:34;;;;;;;2.77;0.70;;;;;;;11.22;100.00;100035.94;5090080;28;20614;-72
2021/10/05 05:56:59;;;;;;;0.70;0.70;;;;;;;11.18;100.00;99958.41;5089583;28;20174;-72
2021/10/05 05:59:25;;;;;;;1.17;0.67;;;;;;;11.18;100.00;100015.84;5090035;28;20174;-72
2021/10/05 06:01:50;;;;;;;0.40;0.40;;;;;;;11.20;100.00;100021.78;5089722;28;20178;-71
2021/10/05 06:04:15;;;;;;;0.50;0.50;;;;;;;11.28;100.00;100023.69;5090287;28;20268;-70
2021/10/05 06:06:41;;;;;;;4.10;0.60;;;;;;;11.36;100.00;100024.00;5092942;28;20192;-71
2021/10/05 06:09:06;;;;;;;1.00;0.60;;;;;;;11.37;100.00;100025.59;5093364;28;20185;-71
2021/10/05 06:11:34;;;;;;;1.27;0.70;;;;;;;11.28;100.00;100020.13;5093352;28;20330;-71
2021/10/05 06:13:59;;;;;;;0.50;0.50;;;;;;;11.38;100.00;100021.72;5093566;28;20170;-71
2021/10/05 06:16:26;;;;;;;0.80;0.80;;;;;;;11.36;100.00;100024.00;5093658;28;20239;-71
2021/10/05 06:18:51;;;;;;;0.60;0.60;;;;;;;11.31;100.00;100017.56;5093129;28;20200;-71
2021/10/05 06:21:17;;;;;;;1.27;0.73;;;;;;;11.42;100.00;100006.25;5093386;28;20170;-71
2021/10/05 06:23:42;;;;;;;0.63;0.63;;;;;;;11.48;100.00;100007.69;5093319;28;20181;-71
2021/10/05 06:26:08;;;;;;;0.63;0.63;;;;;;;11.56;100.00;100015.84;5093671;28;20537;-72
2021/10/05 06:28:33;;;;;;;1.10;0.90;;;;;;;11.54;100.00;100015.38;5093444;28;20687;-72
2021/10/05 06:31:00;;;;;;;1.20;1.00;;;;;;;11.60;100.00;100022.28;5093328;28;20224;-73
2021/10/05 06:33:26;;;;;;;0.80;0.80;;;;;;;11.29;100.00;99987.03;5093145;28;20174;-72
2021/10/05 06:35:51;;;;;;;0.83;0.83;;;;;;;11.30;100.00;100006.97;5092960;28;20170;-72
2021/10/05 06:38:16;;;;;;;1.10;1.00;;;;;;;11.50;100.00;100006.25;5093182;28;20237;-71
2021/10/05 06:40:42;;;;;;;1.00;0.87;;;;;;;11.62;100.00;99950.81;5093286;28;20239;-71
2021/10/05 06:43:08;;;;;;;0.77;0.70;;;;;;;11.65;100.00;100023.25;5093113;28;20261;-71
2021/10/05 06:45:34;;;;;;;0.80;0.80;;;;;;;11.47;100.00;100023.31;5092780;28;20197;-70
2021/10/05 06:47:59;;;;;;;2.60;0.70;;;;;;;11.58;100.00;99955.38;5091584;28;20644;-71
2021/10/05 06:50:26;;;;;;;0.97;0.97;;;;;;;11.70;100.00;100015.63;5093087;28;20174;-71
2021/10/05 06:52:52;;;;;;;0.80;0.70;;;;;;;11.76;100.00;100006.13;5092866;28;20197;-70
2021/10/05 06:55:18;;;;;;;0.93;0.87;;;;;;;11.15;100.00;99952.81;5092727;28;20169;-71
2021/10/05 06:57:44;;;;;;;1.40;1.30;;;;;;;10.82;100.00;99933.44;5092966;28;20166;-71
2021/10/05 07:00:15;;;;;;;1.53;1.37;;;;;;;10.81;100.00;99946.28;5089832;28;20189;-71
2021/10/05 07:02:42;;;;;;;1.10;1.10;;;;;;;11.05;100.00;99950.44;5092390;28;20170;-71
2021/10/05 07:05:09;;;;;;;1.40;1.30;;;;;;;11.20;100.00;100002.66;5092529;28;20192;-71
2021/10/05 07:07:42;;;;;;;1.20;1.20;;;;;;;11.37;100.00;99998.25;5092700;28;20622;-71
2021/10/05 07:10:09;;;;;;;1.23;1.17;;;;;;;11.34;100.00;99945.00;5092530;28;20644;-71
2021/10/05 07:12:35;;;;;;;3.13;1.23;;;;;;;11.31;100.00;99943.72;5074313;28;20657;-74
2021/10/05 07:15:02;;;;;;;1.20;1.10;;;;;;;11.35;100.00;99997.78;5092159;28;20174;-71
2021/10/05 07:17:28;;;;;;;1.43;1.33;;;;;;;11.53;100.00;99944.59;5092435;28;20166;-71
2021/10/05 07:19:53;;;;;;;1.70;1.50;;;;;;;11.56;100.00;100002.19;5092194;28;20198;-71
2021/10/05 07:22:19;;;;;;;1.20;1.10;;;;;;;11.66;100.00;100001.00;5092391;28;20174;-71
2021/10/05 07:24:44;;;;;;;3.57;1.27;;;;;;;11.75;100.00;99999.03;5092288;28;20181;-72
2021/10/05 07:27:10;;;;;;;0.97;0.97;;;;;;;11.70;100.00;99996.47;5091785;28;20189;-71
2021/10/05 07:29:35;;;;;;;3.10;1.40;;;;;;;11.68;100.00;99976.84;5088647;28;20307;-72
2021/10/05 07:32:01;;;;;;;2.00;1.17;;;;;;;11.71;100.00;99991.81;5091658;28;20197;-71
2021/10/05 07:34:26;;;;;;;0.90;0.90;;;;;;;11.81;100.00;99995.00;5092277;28;20184;-71
2021/10/05 07:36:51;;;;;;;1.57;1.20;;;;;;;11.84;100.00;99991.59;5091971;28;20178;-72
2021/10/05 07:39:17;;;;;;;1.50;1.00;;;;;;;11.95;100.00;99986.56;5091663;28;20181;-71
2021/10/05 07:41:43;;;;;;;1.40;1.30;;;;;;;11.97;100.00;100000.72;5092034;28;20712;-71
2021/10/05 07:44:12;;;;;;;1.27;1.13;;;;;;;11.99;100.00;99965.59;5091724;28;20181;-72
2021/10/05 07:46:38;;;;;;;2.20;1.03;;;;;;;12.05;100.00;99964.28;5091801;28;20178;-72
2021/10/05 07:49:05;;;;;;;1.63;1.00;;;;;;;12.08;100.00;99969.06;5092242;28;20212;-72
2021/10/05 07:51:31;;;;;;;1.17;1.07;;;;;;;12.10;100.00;99972.28;5091848;28;20228;-72
2021/10/05 07:53:56;;;;;;;1.23;1.03;;;;;;;12.16;100.00;99965.50;5091211;28;20651;-72
2021/10/05 07:56:22;;;;;;;1.93;1.30;;;;;;;12.11;100.00;99968.41;5091702;28;20257;-72
2021/10/05 07:58:47;;;;;;;1.50;1.40;;;;;;;11.74;100.00;99947.38;5091760;28;20190;-72
2021/10/05 08:01:12;;;;;;;1.23;1.13;;;;;;;11.48;100.00;99885.41;5091724;28;20234;-73
2021/10/05 08:03:37;;;;;;;1.20;1.20;;;;;;;11.52;100.00;99905.47;5091452;28;20213;-73
2021/10/05 08:06:03;;;;;;;1.60;1.50;;;;;;;11.28;100.00;99895.19;5090280;28;20194;-73
2021/10/05 08:08:28;;;;;;;1.60;1.50;;;;;;;11.43;100.00;99909.38;5091345;28;20316;-73
2021/10/05 08:10:54;;;;;;;1.97;1.87;;;;;;;11.53;100.00;99914.50;5089961;28;20189;-73
2021/10/05 08:13:19;;;;;;;1.60;1.50;;;;;;;11.49;100.00;99917.09;5091285;28;20173;-73
2021/10/05 08:15:46;;;;;;;1.50;1.40;;;;;;;11.46;100.00;99903.28;5091105;28;20328;-73
2021/10/05 08:18:13;;;;;;;1.70;1.60;;;;;;;11.35;100.00;99905.59;5091328;28;20602;-72
2021/10/05 08:20:39;;;;;;;1.87;1.53;;;;;;;11.57;100.00;99890.81;5091598;28;20174;-72
2021/10/05 08:23:05;;;;;;;1.47;1.37;;;;;;;11.39;100.00;99881.91;5091083;28;20701;-73
2021/10/05 08:25:30;;;;;;;2.23;1.73;;;;;;;11.39;100.00;99879.16;5090803;28;20273;-73
2021/10/05 08:27:56;;;;;;;1.83;1.53;;;;;;;11.40;100.00;99886.25;5090798;28;20238;-73
2021/10/05 08:30:21;;;;;;;1.40;1.30;;;;;;;11.41;100.00;99928.88;5091285;28;20262;-73
2021/10/05 08:32:47;;;;;;;1.43;1.33;;;;;;;11.51;100.00;99947.66;5090822;28;20257;-73
2021/10/05 08:35:13;;;;;;;1.30;1.20;;;;;;;11.40;100.00;99935.47;5091024;28;20178;-73
2021/10/05 08:37:40;;;;;;;1.67;1.43;;;;;;;11.30;100.00;99879.22;5090495;28;20540;-73
2021/10/05 08:40:07;;;;;;;2.80;1.33;;;;;;;11.65;100.00;99939.22;5090855;28;20637;-73
2021/10/05 08:42:33;;;;;;;1.00;1.00;;;;;;;11.44;100.00;99881.72;5089517;28;20181;-73
2021/10/05 08:44:58;;;;;;;1.07;1.00;;;;;;;11.54;100.00;99875.06;5090921;28;20177;-73
2021/10/05 08:47:24;;;;;;;1.80;1.23;;;;;;;11.47;100.00;99867.38;5090881;28;20626;-73
2021/10/05 08:49:50;;;;;;;1.10;1.00;;;;;;;11.58;100.00;99862.34;5090696;28;20533;-73
2021/10/05 08:52:16;;;;;;;1.70;1.17;;;;;;;11.51;100.00;99903.88;5090733;28;20292;-73
2021/10/05 08:54:42;;;;;;;0.83;0.83;;;;;;;11.49;100.00;99851.44;5090705;28;20177;-73
2021/10/05 08:57:08;;;;;;;0.97;0.97;;;;;;;11.64;100.00;99893.84;5090956;28;20197;-75
2021/10/05 08:59:33;;;;;;;1.10;1.00;;;;;;;11.71;100.00;99894.09;5090627;28;20649;-75
2021/10/05 09:02:13;;;;;;;1.07;0.77;;;;;;;11.85;100.00;99847.34;5091051;28;20290;-75
2021/10/05 09:04:39;;;;;;;0.60;0.60;;;;;;;11.88;100.00;99880.34;5090437;28;20220;-73
2021/10/05 09:07:25;;;;;;;0.80;0.80;;;;;;;11.81;100.00;99895.69;5090518;28;20186;-73
2021/10/05 09:09:59;;;;;;;0.80;0.80;;;;;;;11.85;100.00;99882.91;5093938;28;20186;-73
2021/10/05 09:12:30;;;;;;;2.70;0.87;;;;;;;11.79;100.00;99874.13;5095571;28;20657;-72
2021/10/05 09:14:57;;;;;;;1.23;1.13;;;;;;;11.81;100.00;99839.00;5090336;28;20178;-73
2021/10/05 09:17:26;;;;;;;0.97;0.80;;;;;;;11.79;100.00;99811.16;5090510;28;20640;-73
2021/10/05 09:19:54;;;;;;;1.30;1.20;;;;;;;11.77;100.00;99865.41;5090541;28;20205;-73
2021/10/05 09:22:25;;;;;;;3.27;1.30;;;;;;;11.71;100.00;99795.56;5090472;28;20681;-73
2021/10/05 09:24:52;;;;;;;1.90;1.50;;;;;;;11.54;100.00;99804.72;5090019;28;20173;-73
2021/10/05 09:27:17;;;;;;;1.90;1.00;;;;;;;11.31;100.00;99811.66;5087670;28;20209;-73
2021/10/05 09:29:45;;;;;;;2.40;1.20;;;;;;;11.33;100.00;99825.81;5085592;28;20186;-73
2021/10/05 09:32:15;;;;;;;1.17;1.07;;;;;;;11.41;100.00;99804.97;5088070;28;20205;-73
2021/10/05 09:34:57;;;;;;;1.30;1.07;;;;;;;11.31;100.00;99800.72;5090219;28;20695;-71
2021/10/05 09:37:24;;;;;;;0.73;0.73;;;;;;;11.42;100.00;99792.91;5070056;28;20210;-79
2021/10/05 09:39:53;;;;;;;0.93;0.60;;;;;;;11.65;100.00;99816.06;5072322;28;20205;-76
2021/10/05 09:42:26;;;;;;;0.90;0.80;;;;;;;11.72;100.00;99862.88;5060995;28;20540;-76
2021/10/05 09:45:01;;;;;;;3.10;0.90;;;;;;;11.77;100.00;99849.00;5091223;28;20249;-75
2021/10/05 09:47:40;;;;;;;1.10;1.00;;;;;;;11.97;100.00;99838.38;5094351;28;20184;-76
2021/10/05 09:50:32;;;;;;;0.90;0.90;;;;;;;12.11;100.00;99858.06;5092822;28;20177;-74
2021/10/05 09:53:01;;;;;;;0.90;0.70;;;;;;;12.25;100.00;99855.06;5092968;28;20201;-75
2021/10/05 09:55:35;;;;;;;0.90;0.90;;;;;;;12.17;100.00;99851.28;5091376;28;20178;-74
2021/10/05 09:58:01;;;;;;;0.90;0.90;;;;;;;12.26;100.00;99842.94;5094003;28;20186;-75
2021/10/05 10:00:29;;;;;;;0.70;0.70;;;;;;;12.38;100.00;99853.97;5094372;28;20184;-75
2021/10/05 10:02:55;;;;;;;1.30;0.90;;;;;;;12.54;100.00;99854.09;5093706;28;20182;-72
2021/10/05 10:05:22;;;;;;;0.87;0.87;;;;;;;12.63;100.00;99849.34;5093584;28;20728;-72
2021/10/05 10:07:51;;;;;;;0.80;0.80;;;;;;;12.52;100.00;99858.00;5093739;28;20252;-72
2021/10/05 10:10:21;;;;;;;1.10;1.00;;;;;;;12.56;100.00;99858.09;5093675;28;20181;-72
2021/10/05 10:12:52;;;;;;;0.83;0.83;;;;;;;12.30;100.00;99847.44;5092625;28;20284;-72
2021/10/05 10:15:19;;;;;;;1.07;0.97;;;;;;;12.18;100.00;99847.41;5090390;28;20166;-72
2021/10/05 10:17:45;;;;;;;0.73;0.70;;;;;;;12.57;100.00;99836.97;5093564;28;20208;-72
2021/10/05 10:20:25;;;;;;;3.90;0.80;;;;;;;12.71;100.00;99853.91;5092621;28;20557;-72
2021/10/05 10:22:51;;;;;;;1.00;0.80;;;;;;;12.44;100.00;99850.69;5085209;28;20189;-72
2021/10/05 10:25:23;;;;;;;1.03;0.70;;;;;;;12.69;100.00;99853.47;5092662;28;20265;-71
2021/10/05 10:27:50;;;;;;;0.80;0.80;;;;;;;12.64;100.00;99848.22;5092742;28;20659;-72
2021/10/05 10:30:16;;;;;;;0.60;0.60;;;;;;;12.64;100.00;99843.53;5093619;28;20177;-72
2021/10/05 10:32:47;;;;;;;0.80;0.80;;;;;;;12.78;100.00;99851.44;5093225;28;20209;-72
2021/10/05 10:35:13;;;;;;;0.53;0.53;;;;;;;12.58;100.00;99833.91;5075196;28;20177;-72
2021/10/05 10:37:48;;;;;;;1.30;0.97;;;;;;;12.73;100.00;99837.91;5093371;28;20222;-72
2021/10/05 10:40:16;;;;;;;0.77;0.77;;;;;;;12.67;100.00;99836.56;5093374;28;20181;-67
2021/10/05 10:42:42;;;;;;;1.13;0.70;;;;;;;12.56;100.00;99824.44;5093073;28;20178;-73
2021/10/05 10:45:13;;;;;;;1.07;0.90;;;;;;;12.64;100.00;99818.06;5093098;28;20177;-72
2021/10/05 10:47:40;;;;;;;1.10;1.00;;;;;;;12.73;100.00;99802.28;5093437;28;20543;-73
2021/10/05 10:50:08;;;;;;;1.07;0.87;;;;;;;12.89;100.00;99808.72;5074565;28;20235;-73
2021/10/05 10:52:36;;;;;;;0.87;0.87;;;;;;;12.74;100.00;99810.19;5092934;28;20740;-73
2021/10/05 10:55:05;;;;;;;4.00;0.80;;;;;;;12.93;100.00;99815.13;5093161;28;20218;-73
2021/10/05 10:57:50;;;;;;;0.97;0.53;;;;;;;13.10;100.00;99819.56;5093190;28;20206;-73
2021/10/05 11:00:24;;;;;;;0.47;0.47;;;;;;;13.21;100.00;99807.03;5075114;28;20272;-73
2021/10/05 11:02:53;;;;;;;0.80;0.80;;;;;;;13.35;100.00;99809.41;5092708;28;20218;-73
2021/10/05 11:05:21;;;;;;;1.00;0.80;;;;;;;13.32;100.00;99812.84;5092538;28;20499;-73
2021/10/05 11:07:48;;;;;;;1.10;0.80;;;;;;;13.40;100.00;99820.13;5092943;28;20170;-72
2021/10/05 11:10:13;;;;;;;0.80;0.80;;;;;;;13.50;100.00;99816.13;5092772;28;20178;-72
2021/10/05 11:12:54;;;;;;;0.87;0.87;;;;;;;13.59;100.00;99808.53;5074464;28;20587;-72
2021/10/05 11:15:39;;;;;;;0.97;0.80;;;;;;;13.66;100.00;99809.56;5074267;28;20201;-73
2021/10/05 11:18:10;;;;;;;1.17;0.80;;;;;;;13.60;100.00;99813.72;5092791;28;20170;-73